sensor_id;sensor_type;location;lat;lon;timestamp;temperature;humidity
20862;DHT22;10591;52.532;13.348;2023-06-22T00:01:24;21.21;71.37
20862;DHT22;10591;52.532;13.348;2023-06-22T00:03:57;21.33;70.65
20862;DHT22;10591;52.532;13.348;2023-06-22T00:06:27;21.43;70.60
20862;DHT22;10591;52.532;13.348;2023-06-22T00:08:59;21.24;71.10
20862;DHT22;10591;52.532;13.348;2023-06-22T00:11:30;21.28;71.05
20862;DHT22;10591;52.532;13.348;2023-06-22T00:14:03;21.22;70.99
20862;DHT22;10591;52.532;13.348;2023-06-22T00:16:34;21.21;71.15
20862;DHT22;10591;52.532;13.348;2023-06-22T00:19:05;21.11;71.28
20862;DHT22;10591;52.532;13.348;2023-06-22T00:21:35;21.13;71.33
20862;DHT22;10591;52.532;13.348;2023-06-22T00:24:07;21.04;71.62
20862;DHT22;10591;52.532;13.348;2023-06-22T00:26:40;21.02;71.62
20862;DHT22;10591;52.532;13.348;2023-06-22T00:29:12;21.04;71.84
20862;DHT22;10591;52.532;13.348;2023-06-22T00:31:42;21.12;71.36
20862;DHT22;10591;52.532;13.348;2023-06-22T00:34:15;21.10;71.52
20862;DHT22;10591;52.532;13.348;2023-06-22T00:36:45;21.00;71.56
20862;DHT22;10591;52.532;13.348;2023-06-22T00:39:16;21.00;71.75
20862;DHT22;10591;52.532;13.348;2023-06-22T00:41:49;20.94;71.82
20862;DHT22;10591;52.532;13.348;2023-06-22T00:44:19;20.80;72.43
20862;DHT22;10591;52.532;13.348;2023-06-22T00:46:50;20.96;71.94
20862;DHT22;10591;52.532;13.348;2023-06-22T00:49:21;20.97;71.99
20862;DHT22;10591;52.532;13.348;2023-06-22T00:51:52;20.73;72.69
20862;DHT22;10591;52.532;13.348;2023-06-22T00:54:24;20.82;72.35
20862;DHT22;10591;52.532;13.348;2023-06-22T00:56:55;20.76;72.81
20862;DHT22;10591;52.532;13.348;2023-06-22T00:59:27;20.72;73.02
20862;DHT22;10591;52.532;13.348;2023-06-22T01:01:58;20.66;73.20
20862;DHT22;10591;52.532;13.348;2023-06-22T01:04:39;20.55;73.64
20862;DHT22;10591;52.532;13.348;2023-06-22T01:07:28;20.74;73.02
20862;DHT22;10591;52.532;13.348;2023-06-22T01:10:04;20.52;73.77
20862;DHT22;10591;52.532;13.348;2023-06-22T01:12:38;20.66;73.55
20862;DHT22;10591;52.532;13.348;2023-06-22T01:15:18;20.48;74.04
20862;DHT22;10591;52.532;13.348;2023-06-22T01:17:49;20.58;73.57
20862;DHT22;10591;52.532;13.348;2023-06-22T01:20:21;20.59;73.51
20862;DHT22;10591;52.532;13.348;2023-06-22T01:25:37;20.59;73.51
20862;DHT22;10591;52.532;13.348;2023-06-22T01:28:48;20.64;73.55
20862;DHT22;10591;52.532;13.348;2023-06-22T01:30:58;20.30;74.57
20862;DHT22;10591;52.532;13.348;2023-06-22T01:33:39;20.30;74.71
20862;DHT22;10591;52.532;13.348;2023-06-22T01:36:11;20.48;74.33
20862;DHT22;10591;52.532;13.348;2023-06-22T01:38:43;20.41;74.46
20862;DHT22;10591;52.532;13.348;2023-06-22T01:41:16;20.32;74.93
20862;DHT22;10591;52.532;13.348;2023-06-22T01:43:49;20.48;74.60
20862;DHT22;10591;52.532;13.348;2023-06-22T01:46:21;20.44;74.71
20862;DHT22;10591;52.532;13.348;2023-06-22T01:48:53;20.22;75.12
20862;DHT22;10591;52.532;13.348;2023-06-22T01:51:24;20.11;75.55
20862;DHT22;10591;52.532;13.348;2023-06-22T01:53:55;20.18;75.45
20862;DHT22;10591;52.532;13.348;2023-06-22T01:56:26;20.02;75.80
20862;DHT22;10591;52.532;13.348;2023-06-22T02:01:58;20.20;75.57
20862;DHT22;10591;52.532;13.348;2023-06-22T02:04:38;20.12;76.17
20862;DHT22;10591;52.532;13.348;2023-06-22T02:07:05;20.19;75.89
20862;DHT22;10591;52.532;13.348;2023-06-22T02:09:37;20.19;75.92
20862;DHT22;10591;52.532;13.348;2023-06-22T02:12:22;20.23;75.87
20862;DHT22;10591;52.532;13.348;2023-06-22T02:14:46;20.16;76.34
20862;DHT22;10591;52.532;13.348;2023-06-22T02:17:18;20.26;76.15
20862;DHT22;10591;52.532;13.348;2023-06-22T02:19:50;20.19;76.37
20862;DHT22;10591;52.532;13.348;2023-06-22T02:22:21;20.22;76.72
20862;DHT22;10591;52.532;13.348;2023-06-22T02:24:53;20.22;76.88
20862;DHT22;10591;52.532;13.348;2023-06-22T02:27:24;20.04;77.58
20862;DHT22;10591;52.532;13.348;2023-06-22T02:29:54;20.22;76.99
20862;DHT22;10591;52.532;13.348;2023-06-22T02:32:25;20.29;76.84
20862;DHT22;10591;52.532;13.348;2023-06-22T02:34:56;20.26;77.18
20862;DHT22;10591;52.532;13.348;2023-06-22T02:37:26;20.26;77.10
20862;DHT22;10591;52.532;13.348;2023-06-22T02:39:59;20.12;77.79
20862;DHT22;10591;52.532;13.348;2023-06-22T02:42:33;20.10;77.86
20862;DHT22;10591;52.532;13.348;2023-06-22T02:45:03;20.02;77.95
20862;DHT22;10591;52.532;13.348;2023-06-22T02:47:34;20.11;77.60
20862;DHT22;10591;52.532;13.348;2023-06-22T02:50:07;20.07;78.02
20862;DHT22;10591;52.532;13.348;2023-06-22T02:52:37;20.06;77.90
20862;DHT22;10591;52.532;13.348;2023-06-22T02:55:09;20.12;77.52
20862;DHT22;10591;52.532;13.348;2023-06-22T02:57:39;19.95;78.35
20862;DHT22;10591;52.532;13.348;2023-06-22T03:00:13;19.97;78.10
20862;DHT22;10591;52.532;13.348;2023-06-22T03:02:47;19.92;78.45
20862;DHT22;10591;52.532;13.348;2023-06-22T03:05:18;19.92;78.56
20862;DHT22;10591;52.532;13.348;2023-06-22T03:07:50;19.94;78.28
20862;DHT22;10591;52.532;13.348;2023-06-22T03:10:21;20.01;78.19
20862;DHT22;10591;52.532;13.348;2023-06-22T03:12:51;20.14;78.03
20862;DHT22;10591;52.532;13.348;2023-06-22T03:15:23;20.14;77.97
20862;DHT22;10591;52.532;13.348;2023-06-22T03:17:54;20.19;77.41
20862;DHT22;10591;52.532;13.348;2023-06-22T03:20:27;20.26;77.10
20862;DHT22;10591;52.532;13.348;2023-06-22T03:23:00;20.25;77.21
20862;DHT22;10591;52.532;13.348;2023-06-22T03:25:30;20.13;77.12
20862;DHT22;10591;52.532;13.348;2023-06-22T03:28:01;20.06;77.01
20862;DHT22;10591;52.532;13.348;2023-06-22T03:30:31;20.10;76.06
20862;DHT22;10591;52.532;13.348;2023-06-22T03:33:02;20.23;75.99
20862;DHT22;10591;52.532;13.348;2023-06-22T03:35:33;20.38;75.60
20862;DHT22;10591;52.532;13.348;2023-06-22T03:38:03;20.59;74.49
20862;DHT22;10591;52.532;13.348;2023-06-22T03:40:34;20.46;74.63
20862;DHT22;10591;52.532;13.348;2023-06-22T03:43:07;20.46;74.34
20862;DHT22;10591;52.532;13.348;2023-06-22T03:45:40;20.52;73.73
20862;DHT22;10591;52.532;13.348;2023-06-22T03:48:11;20.44;73.43
20862;DHT22;10591;52.532;13.348;2023-06-22T03:50:43;20.53;72.96
20862;DHT22;10591;52.532;13.348;2023-06-22T03:53:14;20.63;73.38
20862;DHT22;10591;52.532;13.348;2023-06-22T03:55:50;20.49;73.49
20862;DHT22;10591;52.532;13.348;2023-06-22T03:58:21;20.45;73.54
20862;DHT22;10591;52.532;13.348;2023-06-22T04:00:53;20.27;73.56
20862;DHT22;10591;52.532;13.348;2023-06-22T04:03:24;20.28;73.84
20862;DHT22;10591;52.532;13.348;2023-06-22T04:05:55;20.16;74.27
20862;DHT22;10591;52.532;13.348;2023-06-22T04:08:25;20.38;73.99
20862;DHT22;10591;52.532;13.348;2023-06-22T04:10:56;20.36;73.94
20862;DHT22;10591;52.532;13.348;2023-06-22T04:13:27;20.29;74.11
20862;DHT22;10591;52.532;13.348;2023-06-22T04:15:57;20.42;73.56
20862;DHT22;10591;52.532;13.348;2023-06-22T04:18:30;20.52;73.23
20862;DHT22;10591;52.532;13.348;2023-06-22T04:21:03;20.55;73.01
20862;DHT22;10591;52.532;13.348;2023-06-22T04:23:34;20.64;72.98
20862;DHT22;10591;52.532;13.348;2023-06-22T04:26:05;20.81;72.35
20862;DHT22;10591;52.532;13.348;2023-06-22T04:28:37;20.75;72.39
20862;DHT22;10591;52.532;13.348;2023-06-22T04:31:07;20.96;71.41
20862;DHT22;10591;52.532;13.348;2023-06-22T04:33:38;20.88;71.45
20862;DHT22;10591;52.532;13.348;2023-06-22T04:36:10;20.96;71.00
20862;DHT22;10591;52.532;13.348;2023-06-22T04:38:44;20.92;69.65
20862;DHT22;10591;52.532;13.348;2023-06-22T04:41:15;20.71;70.45
20862;DHT22;10591;52.532;13.348;2023-06-22T04:43:47;20.84;70.06
20862;DHT22;10591;52.532;13.348;2023-06-22T05:37:52;22.18;62.12
20862;DHT22;10591;52.532;13.348;2023-06-22T05:40:22;22.50;61.34
20862;DHT22;10591;52.532;13.348;2023-06-22T05:42:53;22.38;61.80
20862;DHT22;10591;52.532;13.348;2023-06-22T05:45:24;22.56;60.93
20862;DHT22;10591;52.532;13.348;2023-06-22T05:47:55;22.57;60.39
20862;DHT22;10591;52.532;13.348;2023-06-22T05:50:26;22.80;59.92
20862;DHT22;10591;52.532;13.348;2023-06-22T05:52:57;23.33;58.18
20862;DHT22;10591;52.532;13.348;2023-06-22T05:55:28;23.36;58.12
20862;DHT22;10591;52.532;13.348;2023-06-22T05:57:59;23.46;57.83
20862;DHT22;10591;52.532;13.348;2023-06-22T06:00:32;23.56;57.17
20862;DHT22;10591;52.532;13.348;2023-06-22T06:03:04;23.40;58.10
20862;DHT22;10591;52.532;13.348;2023-06-22T06:05:36;23.36;58.12
20862;DHT22;10591;52.532;13.348;2023-06-22T06:08:07;23.88;56.97
20862;DHT22;10591;52.532;13.348;2023-06-22T06:10:41;23.96;55.99
20862;DHT22;10591;52.532;13.348;2023-06-22T06:13:14;24.50;55.45
20862;DHT22;10591;52.532;13.348;2023-06-22T06:15:44;25.53;52.41
20862;DHT22;10591;52.532;13.348;2023-06-22T06:18:17;26.04;51.36
20862;DHT22;10591;52.532;13.348;2023-06-22T06:20:51;26.23;51.41
20862;DHT22;10591;52.532;13.348;2023-06-22T06:23:22;26.96;50.29
20862;DHT22;10591;52.532;13.348;2023-06-22T06:25:53;28.86;46.50
20862;DHT22;10591;52.532;13.348;2023-06-22T06:28:25;29.23;45.94
20862;DHT22;10591;52.532;13.348;2023-06-22T06:30:56;29.24;45.64
20862;DHT22;10591;52.532;13.348;2023-06-22T06:33:28;28.86;44.97
20862;DHT22;10591;52.532;13.348;2023-06-22T06:35:59;27.77;48.18
20862;DHT22;10591;52.532;13.348;2023-06-22T06:38:32;28.05;47.09
20862;DHT22;10591;52.532;13.348;2023-06-22T06:41:03;27.76;47.95
20862;DHT22;10591;52.532;13.348;2023-06-22T06:43:37;29.09;45.63
20862;DHT22;10591;52.532;13.348;2023-06-22T06:46:09;28.85;46.36
20862;DHT22;10591;52.532;13.348;2023-06-22T06:48:39;28.40;46.51
20862;DHT22;10591;52.532;13.348;2023-06-22T06:51:11;28.81;45.79
20862;DHT22;10591;52.532;13.348;2023-06-22T06:53:42;29.53;44.51
20862;DHT22;10591;52.532;13.348;2023-06-22T06:56:13;29.76;43.42
20862;DHT22;10591;52.532;13.348;2023-06-22T06:58:44;28.77;43.88
20862;DHT22;10591;52.532;13.348;2023-06-22T07:01:15;27.72;46.06
20862;DHT22;10591;52.532;13.348;2023-06-22T07:03:47;27.48;46.56
20862;DHT22;10591;52.532;13.348;2023-06-22T07:06:20;26.63;48.59
20862;DHT22;10591;52.532;13.348;2023-06-22T07:08:50;26.51;49.03
20862;DHT22;10591;52.532;13.348;2023-06-22T07:11:21;25.92;50.39
20862;DHT22;10591;52.532;13.348;2023-06-22T07:13:53;25.74;51.06
20862;DHT22;10591;52.532;13.348;2023-06-22T07:16:24;24.87;50.66
20862;DHT22;10591;52.532;13.348;2023-06-22T07:18:55;25.21;50.35
20862;DHT22;10591;52.532;13.348;2023-06-22T07:21:26;24.63;51.24
20862;DHT22;10591;52.532;13.348;2023-06-22T07:23:57;25.21;50.29
20862;DHT22;10591;52.532;13.348;2023-06-22T07:26:30;25.14;50.12
20862;DHT22;10591;52.532;13.348;2023-06-22T07:29:03;25.57;50.08
20862;DHT22;10591;52.532;13.348;2023-06-22T07:31:34;25.91;48.98
20862;DHT22;10591;52.532;13.348;2023-06-22T07:34:05;25.53;48.98
20862;DHT22;10591;52.532;13.348;2023-06-22T07:36:37;25.19;49.03
20862;DHT22;10591;52.532;13.348;2023-06-22T07:39:08;24.70;49.16
20862;DHT22;10591;52.532;13.348;2023-06-22T07:41:39;24.79;48.49
20862;DHT22;10591;52.532;13.348;2023-06-22T07:44:13;25.20;47.66
20862;DHT22;10591;52.532;13.348;2023-06-22T07:46:51;25.62;48.08
20862;DHT22;10591;52.532;13.348;2023-06-22T07:49:22;25.58;47.81
20862;DHT22;10591;52.532;13.348;2023-06-22T07:51:53;25.46;47.53
20862;DHT22;10591;52.532;13.348;2023-06-22T07:54:23;25.10;45.72
20862;DHT22;10591;52.532;13.348;2023-06-22T07:56:55;25.57;45.58
20862;DHT22;10591;52.532;13.348;2023-06-22T07:59:26;25.90;45.15
20862;DHT22;10591;52.532;13.348;2023-06-22T08:01:57;25.82;44.08
20862;DHT22;10591;52.532;13.348;2023-06-22T08:04:29;26.28;43.94
20862;DHT22;10591;52.532;13.348;2023-06-22T08:07:01;26.25;42.99
20862;DHT22;10591;52.532;13.348;2023-06-22T08:09:34;26.08;43.98
20862;DHT22;10591;52.532;13.348;2023-06-22T08:12:06;26.12;44.65
20862;DHT22;10591;52.532;13.348;2023-06-22T08:14:38;26.07;45.27
20862;DHT22;10591;52.532;13.348;2023-06-22T08:17:09;25.70;46.22
20862;DHT22;10591;52.532;13.348;2023-06-22T08:19:40;25.69;45.69
20862;DHT22;10591;52.532;13.348;2023-06-22T08:22:12;25.72;45.53
20862;DHT22;10591;52.532;13.348;2023-06-22T08:24:44;25.51;46.26
20862;DHT22;10591;52.532;13.348;2023-06-22T08:27:15;25.66;46.64
20862;DHT22;10591;52.532;13.348;2023-06-22T08:29:47;25.18;46.91
20862;DHT22;10591;52.532;13.348;2023-06-22T08:32:19;25.84;45.87
20862;DHT22;10591;52.532;13.348;2023-06-22T08:34:50;25.91;46.24
20862;DHT22;10591;52.532;13.348;2023-06-22T08:37:21;26.02;45.80
20862;DHT22;10591;52.532;13.348;2023-06-22T08:39:58;26.11;45.67
20862;DHT22;10591;52.532;13.348;2023-06-22T08:42:32;25.96;45.82
20862;DHT22;10591;52.532;13.348;2023-06-22T08:45:05;26.44;45.05
20862;DHT22;10591;52.532;13.348;2023-06-22T08:47:37;25.74;45.86
20862;DHT22;10591;52.532;13.348;2023-06-22T08:50:09;25.87;45.88
20862;DHT22;10591;52.532;13.348;2023-06-22T08:52:41;25.83;46.17
20862;DHT22;10591;52.532;13.348;2023-06-22T08:55:14;26.11;45.80
20862;DHT22;10591;52.532;13.348;2023-06-22T08:57:45;25.98;45.79
20862;DHT22;10591;52.532;13.348;2023-06-22T09:00:18;25.92;45.62
20862;DHT22;10591;52.532;13.348;2023-06-22T09:02:49;25.52;45.77
20862;DHT22;10591;52.532;13.348;2023-06-22T09:05:22;25.36;46.93
20862;DHT22;10591;52.532;13.348;2023-06-22T09:07:53;25.86;46.40
20862;DHT22;10591;52.532;13.348;2023-06-22T09:10:32;26.08;45.47
20862;DHT22;10591;52.532;13.348;2023-06-22T09:13:04;26.28;44.93
20862;DHT22;10591;52.532;13.348;2023-06-22T09:15:35;26.19;45.55
20862;DHT22;10591;52.532;13.348;2023-06-22T09:18:06;26.08;45.80
20862;DHT22;10591;52.532;13.348;2023-06-22T09:20:38;26.05;46.00
20862;DHT22;10591;52.532;13.348;2023-06-22T09:23:10;26.84;45.03
20862;DHT22;10591;52.532;13.348;2023-06-22T09:25:40;26.48;44.79
20862;DHT22;10591;52.532;13.348;2023-06-22T09:28:11;26.35;44.94
20862;DHT22;10591;52.532;13.348;2023-06-22T09:30:43;26.48;44.62
20862;DHT22;10591;52.532;13.348;2023-06-22T09:33:15;26.57;45.23
20862;DHT22;10591;52.532;13.348;2023-06-22T09:35:48;26.67;43.98
20862;DHT22;10591;52.532;13.348;2023-06-22T09:38:20;26.48;45.15
20862;DHT22;10591;52.532;13.348;2023-06-22T09:40:50;26.67;45.24
20862;DHT22;10591;52.532;13.348;2023-06-22T09:43:23;26.10;45.70
20862;DHT22;10591;52.532;13.348;2023-06-22T09:45:53;26.10;45.94
20862;DHT22;10591;52.532;13.348;2023-06-22T09:48:26;26.54;46.85
20862;DHT22;10591;52.532;13.348;2023-06-22T09:50:57;26.48;46.15
20862;DHT22;10591;52.532;13.348;2023-06-22T09:53:27;26.14;46.24
20862;DHT22;10591;52.532;13.348;2023-06-22T09:55:58;26.30;46.52
20862;DHT22;10591;52.532;13.348;2023-06-22T09:58:29;26.21;45.42
20862;DHT22;10591;52.532;13.348;2023-06-22T10:01:02;26.32;45.17
20862;DHT22;10591;52.532;13.348;2023-06-22T10:03:33;26.00;46.09
20862;DHT22;10591;52.532;13.348;2023-06-22T10:06:04;25.92;45.79
20862;DHT22;10591;52.532;13.348;2023-06-22T10:08:35;26.07;45.97
20862;DHT22;10591;52.532;13.348;2023-06-22T10:11:08;26.44;45.88
20862;DHT22;10591;52.532;13.348;2023-06-22T10:13:39;26.46;46.31
20862;DHT22;10591;52.532;13.348;2023-06-22T10:16:10;26.75;45.85
20862;DHT22;10591;52.532;13.348;2023-06-22T10:18:41;27.14;45.76
20862;DHT22;10591;52.532;13.348;2023-06-22T10:21:11;26.39;46.76
20862;DHT22;10591;52.532;13.348;2023-06-22T10:23:43;26.56;46.82
20862;DHT22;10591;52.532;13.348;2023-06-22T10:26:14;26.74;46.67
20862;DHT22;10591;52.532;13.348;2023-06-22T10:28:45;26.74;46.11
20862;DHT22;10591;52.532;13.348;2023-06-22T10:31:15;26.68;46.57
20862;DHT22;10591;52.532;13.348;2023-06-22T10:33:46;27.01;45.88
20862;DHT22;10591;52.532;13.348;2023-06-22T10:36:20;26.74;45.84
20862;DHT22;10591;52.532;13.348;2023-06-22T10:38:51;26.22;46.12
20862;DHT22;10591;52.532;13.348;2023-06-22T10:41:22;26.05;46.65
20862;DHT22;10591;52.532;13.348;2023-06-22T10:43:53;26.29;46.32
20862;DHT22;10591;52.532;13.348;2023-06-22T10:46:26;26.83;45.59
20862;DHT22;10591;52.532;13.348;2023-06-22T10:49:00;26.91;46.07
20862;DHT22;10591;52.532;13.348;2023-06-22T10:51:31;26.84;46.06
20862;DHT22;10591;52.532;13.348;2023-06-22T10:54:02;26.43;46.64
20862;DHT22;10591;52.532;13.348;2023-06-22T10:56:34;26.07;47.54
20862;DHT22;10591;52.532;13.348;2023-06-22T10:59:07;26.23;47.50
20862;DHT22;10591;52.532;13.348;2023-06-22T11:01:38;26.25;47.04
20862;DHT22;10591;52.532;13.348;2023-06-22T11:04:08;26.10;47.12
20862;DHT22;10591;52.532;13.348;2023-06-22T11:06:39;26.06;47.61
20862;DHT22;10591;52.532;13.348;2023-06-22T11:09:11;26.38;47.19
20862;DHT22;10591;52.532;13.348;2023-06-22T11:11:43;26.61;46.50
20862;DHT22;10591;52.532;13.348;2023-06-22T11:14:15;26.57;46.49
20862;DHT22;10591;52.532;13.348;2023-06-22T11:16:48;26.67;46.50
20862;DHT22;10591;52.532;13.348;2023-06-22T11:19:20;26.42;45.81
20862;DHT22;10591;52.532;13.348;2023-06-22T11:21:52;26.56;45.96
20862;DHT22;10591;52.532;13.348;2023-06-22T11:24:23;26.68;45.41
20862;DHT22;10591;52.532;13.348;2023-06-22T11:26:55;27.03;45.42
20862;DHT22;10591;52.532;13.348;2023-06-22T11:29:30;27.34;43.99
20862;DHT22;10591;52.532;13.348;2023-06-22T11:32:03;27.09;44.46
20862;DHT22;10591;52.532;13.348;2023-06-22T11:34:34;27.71;44.30
20862;DHT22;10591;52.532;13.348;2023-06-22T11:37:06;27.30;44.18
20862;DHT22;10591;52.532;13.348;2023-06-22T11:39:37;27.27;44.31
20862;DHT22;10591;52.532;13.348;2023-06-22T11:42:10;27.78;44.10
20862;DHT22;10591;52.532;13.348;2023-06-22T11:44:42;27.80;43.44
20862;DHT22;10591;52.532;13.348;2023-06-22T11:47:13;26.97;44.61
20862;DHT22;10591;52.532;13.348;2023-06-22T11:49:45;27.26;44.85
20862;DHT22;10591;52.532;13.348;2023-06-22T11:52:15;27.40;44.23
20862;DHT22;10591;52.532;13.348;2023-06-22T11:54:47;27.42;44.27
20862;DHT22;10591;52.532;13.348;2023-06-22T11:57:19;27.58;43.54
20862;DHT22;10591;52.532;13.348;2023-06-22T11:59:52;27.42;44.27
20862;DHT22;10591;52.532;13.348;2023-06-22T12:02:23;27.41;43.70
20862;DHT22;10591;52.532;13.348;2023-06-22T12:04:54;27.48;43.57
20862;DHT22;10591;52.532;13.348;2023-06-22T12:07:25;27.68;43.63
20862;DHT22;10591;52.532;13.348;2023-06-22T12:09:57;27.46;43.73
20862;DHT22;10591;52.532;13.348;2023-06-22T12:12:28;27.92;43.08
20862;DHT22;10591;52.532;13.348;2023-06-22T12:15:00;27.38;43.80
20862;DHT22;10591;52.532;13.348;2023-06-22T12:17:33;27.81;43.47
20862;DHT22;10591;52.532;13.348;2023-06-22T12:20:06;27.47;43.94
20862;DHT22;10591;52.532;13.348;2023-06-22T12:22:41;27.54;43.64
20862;DHT22;10591;52.532;13.348;2023-06-22T12:25:12;27.42;44.00
20862;DHT22;10591;52.532;13.348;2023-06-22T12:27:43;27.17;44.37
20862;DHT22;10591;52.532;13.348;2023-06-22T12:30:15;27.13;44.13
20862;DHT22;10591;52.532;13.348;2023-06-22T12:32:47;27.14;43.83
20862;DHT22;10591;52.532;13.348;2023-06-22T12:35:23;26.99;44.28
20862;DHT22;10591;52.532;13.348;2023-06-22T12:37:57;27.08;44.23
20862;DHT22;10591;52.532;13.348;2023-06-22T12:40:28;27.16;44.10
20862;DHT22;10591;52.532;13.348;2023-06-22T12:43:01;26.97;44.38
20862;DHT22;10591;52.532;13.348;2023-06-22T12:45:32;26.85;44.67
20862;DHT22;10591;52.532;13.348;2023-06-22T12:48:05;27.07;44.83
20862;DHT22;10591;52.532;13.348;2023-06-22T12:50:38;27.24;44.48
20862;DHT22;10591;52.532;13.348;2023-06-22T12:53:09;27.49;43.90
20862;DHT22;10591;52.532;13.348;2023-06-22T12:55:40;27.25;44.18
20862;DHT22;10591;52.532;13.348;2023-06-22T12:58:10;27.47;44.10
20862;DHT22;10591;52.532;13.348;2023-06-22T13:00:43;27.83;43.98
20862;DHT22;10591;52.532;13.348;2023-06-22T13:03:14;27.81;43.48
20862;DHT22;10591;52.532;13.348;2023-06-22T13:05:45;27.91;43.31
20862;DHT22;10591;52.532;13.348;2023-06-22T13:08:16;27.96;43.48
20862;DHT22;10591;52.532;13.348;2023-06-22T13:10:48;28.19;43.21
20862;DHT22;10591;52.532;13.348;2023-06-22T13:13:19;28.29;42.82
20862;DHT22;10591;52.532;13.348;2023-06-22T13:15:49;28.34;42.89
20862;DHT22;10591;52.532;13.348;2023-06-22T13:18:24;28.62;42.48
20862;DHT22;10591;52.532;13.348;2023-06-22T13:20:57;28.45;42.09
20862;DHT22;10591;52.532;13.348;2023-06-22T13:23:30;27.89;43.48
20862;DHT22;10591;52.532;13.348;2023-06-22T13:26:03;28.11;43.07
20862;DHT22;10591;52.532;13.348;2023-06-22T13:28:34;28.39;42.96
20862;DHT22;10591;52.532;13.348;2023-06-22T13:31:07;28.26;43.05
20862;DHT22;10591;52.532;13.348;2023-06-22T13:33:39;28.26;43.32
20862;DHT22;10591;52.532;13.348;2023-06-22T13:36:10;28.35;42.89
20862;DHT22;10591;52.532;13.348;2023-06-22T13:38:41;27.64;43.76
20862;DHT22;10591;52.532;13.348;2023-06-22T13:41:12;27.71;43.93
20862;DHT22;10591;52.532;13.348;2023-06-22T13:43:43;27.75;43.83
20862;DHT22;10591;52.532;13.348;2023-06-22T13:46:13;27.90;43.68
20862;DHT22;10591;52.532;13.348;2023-06-22T13:48:44;28.02;43.63
20862;DHT22;10591;52.532;13.348;2023-06-22T13:51:15;27.91;43.85
20862;DHT22;10591;52.532;13.348;2023-06-22T13:53:45;28.10;44.28
20862;DHT22;10591;52.532;13.348;2023-06-22T13:56:16;27.80;43.57
20862;DHT22;10591;52.532;13.348;2023-06-22T13:58:47;27.59;44.25
20862;DHT22;10591;52.532;13.348;2023-06-22T14:01:18;27.82;43.87
20862;DHT22;10591;52.532;13.348;2023-06-22T14:03:49;28.13;43.70
20862;DHT22;10591;52.532;13.348;2023-06-22T14:06:21;27.95;43.72
20862;DHT22;10591;52.532;13.348;2023-06-22T14:08:54;27.77;43.97
20862;DHT22;10591;52.532;13.348;2023-06-22T14:11:27;27.55;44.61
20862;DHT22;10591;52.532;13.348;2023-06-22T14:13:58;27.51;44.54
20862;DHT22;10591;52.532;13.348;2023-06-22T14:16:30;27.72;44.37
20862;DHT22;10591;52.532;13.348;2023-06-22T14:19:03;28.03;43.90
20862;DHT22;10591;52.532;13.348;2023-06-22T14:21:35;27.98;43.79
20862;DHT22;10591;52.532;13.348;2023-06-22T14:24:05;27.90;43.92
20862;DHT22;10591;52.532;13.348;2023-06-22T14:26:36;28.07;43.60
20862;DHT22;10591;52.532;13.348;2023-06-22T14:29:07;27.76;43.90
20862;DHT22;10591;52.532;13.348;2023-06-22T14:31:38;27.93;44.52
20862;DHT22;10591;52.532;13.348;2023-06-22T14:34:08;28.27;44.22
20862;DHT22;10591;52.532;13.348;2023-06-22T14:36:41;28.17;43.68
20862;DHT22;10591;52.532;13.348;2023-06-22T14:39:12;28.27;43.66
20862;DHT22;10591;52.532;13.348;2023-06-22T14:41:43;28.06;43.67
20862;DHT22;10591;52.532;13.348;2023-06-22T14:44:13;28.10;43.74
20862;DHT22;10591;52.532;13.348;2023-06-22T14:46:44;28.06;43.97
20862;DHT22;10591;52.532;13.348;2023-06-22T14:49:14;28.16;44.15
20862;DHT22;10591;52.532;13.348;2023-06-22T14:51:45;28.16;43.75
20862;DHT22;10591;52.532;13.348;2023-06-22T14:54:17;28.31;43.43
20862;DHT22;10591;52.532;13.348;2023-06-22T14:56:48;28.41;43.37
20862;DHT22;10591;52.532;13.348;2023-06-22T14:59:19;28.17;43.88
20862;DHT22;10591;52.532;13.348;2023-06-22T15:01:49;28.02;44.20
20862;DHT22;10591;52.532;13.348;2023-06-22T15:04:21;27.81;44.34
20862;DHT22;10591;52.532;13.348;2023-06-22T15:06:52;27.96;44.46
20862;DHT22;10591;52.532;13.348;2023-06-22T15:09:22;27.85;44.38
20862;DHT22;10591;52.532;13.348;2023-06-22T15:11:53;27.95;44.29
20862;DHT22;10591;52.532;13.348;2023-06-22T15:14:24;27.90;44.32
20862;DHT22;10591;52.532;13.348;2023-06-22T15:16:55;27.91;44.49
20862;DHT22;10591;52.532;13.348;2023-06-22T15:19:25;28.11;43.97
20862;DHT22;10591;52.532;13.348;2023-06-22T15:21:56;28.03;44.14
20862;DHT22;10591;52.532;13.348;2023-06-22T15:24:27;27.84;44.48
20862;DHT22;10591;52.532;13.348;2023-06-22T15:26:57;27.56;45.15
20862;DHT22;10591;52.532;13.348;2023-06-22T15:29:28;27.66;45.06
20862;DHT22;10591;52.532;13.348;2023-06-22T15:32:03;27.64;44.89
20862;DHT22;10591;52.532;13.348;2023-06-22T15:34:35;27.68;44.86
20862;DHT22;10591;52.532;13.348;2023-06-22T15:37:06;27.78;44.91
20862;DHT22;10591;52.532;13.348;2023-06-22T15:39:36;27.61;45.15
20862;DHT22;10591;52.532;13.348;2023-06-22T15:42:08;27.67;45.16
20862;DHT22;10591;52.532;13.348;2023-06-22T15:44:39;27.63;45.36
20862;DHT22;10591;52.532;13.348;2023-06-22T15:47:11;27.81;45.24
20862;DHT22;10591;52.532;13.348;2023-06-22T15:49:42;27.96;44.73
20862;DHT22;10591;52.532;13.348;2023-06-22T15:52:13;27.81;44.68
20862;DHT22;10591;52.532;13.348;2023-06-22T15:54:46;27.71;45.07
20862;DHT22;10591;52.532;13.348;2023-06-22T15:57:17;27.67;45.56
20862;DHT22;10591;52.532;13.348;2023-06-22T15:59:48;27.76;45.40
20862;DHT22;10591;52.532;13.348;2023-06-22T16:02:19;27.74;45.50
20862;DHT22;10591;52.532;13.348;2023-06-22T16:04:50;27.69;45.69
20862;DHT22;10591;52.532;13.348;2023-06-22T16:07:22;27.61;45.75
20862;DHT22;10591;52.532;13.348;2023-06-22T16:09:53;27.62;45.98
20862;DHT22;10591;52.532;13.348;2023-06-22T16:12:24;27.68;46.03
20862;DHT22;10591;52.532;13.348;2023-06-22T16:14:56;27.73;46.03
20862;DHT22;10591;52.532;13.348;2023-06-22T16:17:27;27.59;46.32
20862;DHT22;10591;52.532;13.348;2023-06-22T16:19:59;27.63;46.29
20862;DHT22;10591;52.532;13.348;2023-06-22T16:22:30;27.64;46.42
20862;DHT22;10591;52.532;13.348;2023-06-22T16:25:01;27.75;46.33
20862;DHT22;10591;52.532;13.348;2023-06-22T16:27:32;27.50;46.57
20862;DHT22;10591;52.532;13.348;2023-06-22T16:30:09;27.59;46.68
20862;DHT22;10591;52.532;13.348;2023-06-22T16:32:56;27.55;46.67
20862;DHT22;10591;52.532;13.348;2023-06-22T16:35:24;27.43;46.75
20862;DHT22;10591;52.532;13.348;2023-06-22T16:37:55;27.37;46.72
20862;DHT22;10591;52.532;13.348;2023-06-22T16:40:26;27.38;46.85